Time;durP1;ratioP1;P1;durP2;ratioP2;P2;SDS_P1;SDS_P2;PMS_P1;PMS_P2;Temp;Humidity;BMP_temperature;BMP_pressure;BME280_temperature;BME280_humidity;BME280_pressure;Samples;Min_cycle;Max_cycle;Signal;HPM_P1;HPM_P2
2023/01/18 00:01:35;;;;;;;77.13;35.83;;;2.30;99.90;;;;;;10412028;28;20129;-84
2023/01/18 00:06:36;;;;;;;77.23;34.07;;;2.20;99.90;;;;;;10401152;28;20115;-85
2023/01/18 00:11:36;;;;;;;66.63;30.97;;;2.10;99.90;;;;;;10402158;28;20580;-84
2023/01/18 00:16:38;;;;;;;64.40;30.23;;;2.10;99.90;;;;;;10413700;28;20599;-84
2023/01/18 00:21:39;;;;;;;70.70;32.57;;;2.10;99.90;;;;;;10387541;28;20068;-84
2023/01/18 00:26:41;;;;;;;75.17;33.33;;;2.10;99.90;;;;;;10400535;28;20385;-85
2023/01/18 00:31:42;;;;;;;79.70;35.93;;;2.10;99.90;;;;;;10404482;28;20641;-85
2023/01/18 00:36:42;;;;;;;77.23;34.73;;;2.00;99.90;;;;;;10401322;28;20087;-86
2023/01/18 00:43:37;;;;;;;66.03;30.57;;;2.00;99.90;;;;;;10407474;28;20531;-84
2023/01/18 00:47:03;;;;;;;67.33;30.70;;;2.00;99.90;;;;;;10404628;28;20045;-85
2023/01/18 00:52:04;;;;;;;56.33;25.90;;;2.00;99.90;;;;;;10390881;28;20022;-84
2023/01/18 00:57:04;;;;;;;64.60;26.10;;;2.00;99.90;;;;;;10409253;28;20400;-86
2023/01/18 01:02:05;;;;;;;76.33;29.97;;;2.00;99.90;;;;;;10393479;28;20633;-85
2023/01/18 01:07:05;;;;;;;85.63;33.33;;;2.00;99.90;;;;;;10407520;28;20049;-86
2023/01/18 01:28:09;;;;;;;104.47;42.40;;;2.10;99.90;;;;;;10406146;28;20053;-85
2023/01/18 01:33:10;;;;;;;103.37;43.10;;;2.10;99.90;;;;;;10389654;28;20034;-85
2023/01/18 01:38:11;;;;;;;104.10;42.70;;;2.20;99.90;;;;;;10407364;28;20710;-83
2023/01/18 01:43:12;;;;;;;102.93;43.20;;;2.10;99.90;;;;;;10406450;28;20075;-84
2023/01/18 01:48:13;;;;;;;105.47;41.47;;;2.20;99.90;;;;;;10415190;28;20029;-83
2023/01/18 01:53:13;;;;;;;101.83;43.57;;;2.10;99.90;;;;;;10411197;28;20033;-82
2023/01/18 01:58:20;;;;;;;101.10;43.37;;;2.10;99.90;;;;;;10406306;28;20606;-85
2023/01/18 02:03:24;;;;;;;101.43;39.27;;;2.00;99.90;;;;;;10391599;28;20037;-84
2023/01/18 02:08:26;;;;;;;108.13;45.00;;;2.00;99.90;;;;;;10405567;28;20045;-84
2023/01/18 02:13:27;;;;;;;107.90;41.53;;;1.90;99.90;;;;;;10406866;28;20037;-84
2023/01/18 02:18:35;;;;;;;106.70;43.63;;;1.90;99.90;;;;;;10419364;28;20041;-83
2023/01/18 02:23:55;;;;;;;132.80;47.27;;;1.80;99.90;;;;;;10405045;28;20455;-85
2023/01/18 02:29:17;;;;;;;112.77;42.20;;;1.80;99.90;;;;;;10420145;28;20033;-83
2023/01/18 02:34:33;;;;;;;113.37;42.93;;;1.70;99.90;;;;;;10403114;28;20513;-83
2023/01/18 02:39:50;;;;;;;;;;;1.70;99.90;;;;;;10390443;28;20377;-84
2023/01/18 02:50:18;;;;;;;120.83;42.63;;;1.60;99.90;;;;;;10408082;28;20103;-83
2023/01/18 02:55:40;;;;;;;109.70;42.50;;;1.60;99.90;;;;;;10386714;28;20038;-84
2023/01/18 03:00:45;;;;;;;106.40;38.70;;;1.70;99.90;;;;;;10388067;28;20064;-85
2023/01/18 03:05:48;;;;;;;110.32;41.92;;;1.80;99.90;;;;;;10386044;28;20037;-84
2023/01/18 03:11:12;;;;;;;110.10;39.60;;;1.80;99.90;;;;;;10375011;28;20708;-84
2023/01/18 03:16:21;;;;;;;97.17;35.90;;;1.70;99.90;;;;;;10406772;28;20417;-83
2023/01/18 03:21:22;;;;;;;80.50;31.27;;;1.70;99.90;;;;;;10403604;28;20163;-84
2023/01/18 03:26:24;;;;;;;89.97;33.03;;;1.70;99.90;;;;;;10388677;28;20422;-83
2023/01/18 03:36:51;;;;;;;88.93;33.83;;;1.70;99.90;;;;;;10413708;28;20049;-83
2023/01/18 03:41:56;;;;;;;87.87;32.30;;;1.80;99.90;;;;;;10402073;28;20120;-84
2023/01/18 03:46:56;;;;;;;87.90;33.80;;;1.70;99.90;;;;;;10403912;28;20049;-83
2023/01/18 03:52:22;;;;;;;83.53;30.73;;;1.80;99.90;;;;;;10412545;28;20068;-85
2023/01/18 03:57:49;;;;;;;77.40;31.30;;;1.70;99.90;;;;;;10375885;28;20107;-85
2023/01/18 04:02:49;;;;;;;73.00;26.55;;;1.60;99.90;;;;;;10405512;28;20496;-84
2023/01/18 04:07:50;;;;;;;70.63;24.70;;;1.60;99.90;;;;;;10401015;28;20049;-84
2023/01/18 04:12:50;;;;;;;72.30;27.13;;;1.60;99.90;;;;;;10383137;28;20053;-82
2023/01/18 04:17:54;;;;;;;86.40;29.70;;;1.50;99.90;;;;;;10402282;28;20116;-82
2023/01/18 04:22:55;;;;;;;74.80;25.47;;;1.40;99.90;;;;;;10402630;28;20068;-83
2023/01/18 04:27:55;;;;;;;56.03;18.17;;;1.40;99.90;;;;;;10402180;28;20124;-84
2023/01/18 04:32:56;;;;;;;53.00;19.00;;;1.40;99.90;;;;;;10382227;28;20041;-86
2023/01/18 04:37:57;;;;;;;43.93;18.07;;;1.40;99.90;;;;;;10405493;28;20040;-81
2023/01/18 04:42:57;;;;;;;43.17;17.43;;;1.40;99.90;;;;;;10400457;28;20061;-80
2023/01/18 04:47:58;;;;;;;47.27;18.33;;;1.40;99.90;;;;;;10406952;28;20121;-83
2023/01/18 04:52:58;;;;;;;49.40;18.80;;;1.40;99.90;;;;;;10399803;28;20037;-82
2023/01/18 04:57:59;;;;;;;47.77;19.03;;;1.40;99.90;;;;;;10380610;28;20025;-84
2023/01/18 05:03:00;;;;;;;49.70;18.90;;;1.40;99.90;;;;;;10399146;28;20021;-82
2023/01/18 05:08:00;;;;;;;50.00;17.77;;;1.40;99.90;;;;;;10403739;28;20494;-83
2023/01/18 05:13:01;;;;;;;49.67;18.60;;;1.40;99.90;;;;;;10409557;28;20124;-82
2023/01/18 05:18:02;;;;;;;42.60;18.00;;;1.50;99.90;;;;;;10400965;28;20113;-81
2023/01/18 05:23:09;;;;;;;51.83;19.37;;;1.50;99.90;;;;;;10413745;28;20033;-82
2023/01/18 05:28:10;;;;;;;46.17;18.23;;;1.50;99.90;;;;;;10387476;28;20084;-83
2023/01/18 05:33:10;;;;;;;46.87;17.90;;;1.50;99.90;;;;;;10395675;28;20151;-84
2023/01/18 05:38:11;;;;;;;37.87;13.93;;;1.50;99.90;;;;;;10379609;28;20040;-83
2023/01/18 05:43:11;;;;;;;55.00;19.43;;;1.60;99.90;;;;;;10404756;28;20028;-82
2023/01/18 05:48:12;;;;;;;57.27;22.13;;;1.70;99.90;;;;;;10406153;28;20485;-85
2023/01/18 05:53:18;;;;;;;73.87;28.47;;;1.70;99.90;;;;;;10405543;28;20029;-84
2023/01/18 05:58:19;;;;;;;62.00;23.70;;;1.80;99.90;;;;;;10406235;28;20041;-84
2023/01/18 06:03:20;;;;;;;54.10;20.00;;;1.80;99.90;;;;;;10387880;28;20417;-84
2023/01/18 06:08:21;;;;;;;50.63;19.83;;;1.90;99.90;;;;;;10374097;28;20052;-82
2023/01/18 06:13:23;;;;;;;55.80;19.20;;;1.90;99.90;;;;;;10386918;28;20152;-84
2023/01/18 06:18:25;;;;;;;39.57;14.83;;;1.90;99.90;;;;;;10404678;28;20041;-84
2023/01/18 06:23:27;;;;;;;47.83;17.30;;;1.90;99.90;;;;;;10404534;28;20444;-82
2023/01/18 06:28:28;;;;;;;44.63;18.30;;;1.90;99.90;;;;;;10373627;28;20057;-84
2023/01/18 06:33:29;;;;;;;52.07;19.47;;;1.90;99.90;;;;;;10404722;28;20113;-82
2023/01/18 06:38:30;;;;;;;52.57;20.27;;;1.90;99.90;;;;;;10404256;28;20108;-84
2023/01/18 06:43:30;;;;;;;75.47;25.87;;;1.90;99.90;;;;;;10403811;28;20115;-82
2023/01/18 06:48:31;;;;;;;73.37;24.60;;;1.90;99.90;;;;;;10403537;28;20138;-83
2023/01/18 06:53:31;;;;;;;64.83;24.87;;;1.90;99.90;;;;;;10403647;28;20427;-84
2023/01/18 06:58:32;;;;;;;84.70;29.30;;;1.90;99.90;;;;;;10402241;28;20128;-84
2023/01/18 07:03:33;;;;;;;85.47;26.40;;;1.90;99.90;;;;;;10385838;28;20021;-84
2023/01/18 07:08:34;;;;;;;63.00;21.40;;;1.90;99.90;;;;;;10402411;28;20037;-85
2023/01/18 07:13:38;;;;;;;86.00;27.00;;;1.90;99.90;;;;;;10403140;28;20048;-83
2023/01/18 07:18:42;;;;;;;99.43;30.07;;;1.90;99.90;;;;;;10402541;28;20039;-83
2023/01/18 07:23:43;;;;;;;88.43;27.00;;;1.90;99.90;;;;;;10402786;28;20022;-81
2023/01/18 07:28:44;;;;;;;82.00;26.03;;;2.00;99.90;;;;;;10384836;28;20033;-84
2023/01/18 07:33:45;;;;;;;83.37;26.80;;;2.00;99.90;;;;;;10408230;28;20389;-82
2023/01/18 07:38:47;;;;;;;72.00;24.67;;;2.00;99.90;;;;;;10409168;28;20037;-83
2023/01/18 07:43:48;;;;;;;71.43;25.17;;;2.00;99.90;;;;;;10401639;28;20069;-83
2023/01/18 07:48:48;;;;;;;86.37;27.13;;;2.00;99.90;;;;;;10401836;28;20037;-81
2023/01/18 07:53:53;;;;;;;86.07;28.53;;;2.10;99.90;;;;;;10401675;28;20485;-84
2023/01/18 07:58:54;;;;;;;79.03;25.37;;;2.10;99.90;;;;;;10401683;28;20400;-84
2023/01/18 08:03:55;;;;;;;72.27;24.80;;;2.00;99.90;;;;;;10401195;28;20041;-84
2023/01/18 08:08:55;;;;;;;75.13;27.13;;;2.10;99.90;;;;;;10400874;28;20140;-83
2023/01/18 08:13:56;;;;;;;83.33;25.37;;;2.10;99.90;;;;;;10401285;28;20039;-83
2023/01/18 08:18:57;;;;;;;97.00;30.33;;;2.20;99.90;;;;;;10401203;28;20577;-82
2023/01/18 08:23:57;;;;;;;68.10;22.17;;;2.30;99.90;;;;;;10383272;28;20041;-84
2023/01/18 08:28:58;;;;;;;77.13;28.07;;;2.40;99.90;;;;;;10400920;28;20025;-82
2023/01/18 08:33:58;;;;;;;104.53;30.30;;;2.30;99.90;;;;;;10400331;28;20045;-83
2023/01/18 08:38:59;;;;;;;85.80;25.13;;;2.40;99.90;;;;;;10400229;28;20034;-83
2023/01/18 08:43:59;;;;;;;64.43;22.97;;;2.40;99.90;;;;;;10400142;28;20128;-84
2023/01/18 08:49:00;;;;;;;74.40;25.20;;;2.40;99.90;;;;;;10400970;28;20165;-83
2023/01/18 08:54:00;;;;;;;94.33;29.00;;;2.50;99.90;;;;;;10400566;28;20037;-83
2023/01/18 08:59:01;;;;;;;72.70;24.10;;;2.50;99.90;;;;;;10399950;28;20831;-83
2023/01/18 09:04:02;;;;;;;98.10;26.50;;;2.60;99.90;;;;;;10381978;28;20033;-83
2023/01/18 09:09:04;;;;;;;74.23;23.67;;;2.60;99.90;;;;;;10402049;28;20049;-82
2023/01/18 09:14:04;;;;;;;107.93;35.30;;;2.60;99.90;;;;;;10390210;28;20055;-83
2023/01/18 09:19:05;;;;;;;102.93;32.93;;;2.60;99.90;;;;;;10407523;28;20025;-82
2023/01/18 09:24:06;;;;;;;85.87;30.50;;;2.60;99.90;;;;;;10407271;28;20033;-83
2023/01/18 09:29:07;;;;;;;74.53;23.83;;;2.60;99.90;;;;;;10407233;28;20534;-81
2023/01/18 09:34:07;;;;;;;70.20;24.57;;;2.70;99.90;;;;;;10385599;28;20339;-83
2023/01/18 09:39:08;;;;;;;102.23;29.83;;;2.70;99.90;;;;;;10407043;28;20041;-83
2023/01/18 09:44:28;;;;;;;159.20;46.93;;;2.70;99.90;;;;;;10406876;28;20030;-84
2023/01/18 09:49:50;;;;;;;126.73;35.90;;;2.70;99.90;;;;;;10406740;28;20171;-82
2023/01/18 09:55:32;;;;;;;140.70;53.10;;;2.70;99.90;;;;;;10405849;28;20053;-83
2023/01/18 10:00:35;;;;;;;90.87;31.10;;;2.60;99.90;;;;;;10406455;28;20025;-85
2023/01/18 10:06:07;;;;;;;116.57;33.37;;;2.60;99.90;;;;;;10405599;28;20049;-81
2023/01/18 10:11:15;;;;;;;93.00;28.80;;;2.60;99.90;;;;;;10387584;28;20079;-82
2023/01/18 10:16:17;;;;;;;125.20;36.90;;;2.60;99.90;;;;;;10403763;28;20029;-81
2023/01/18 10:21:29;;;;;;;117.03;35.40;;;2.50;99.90;;;;;;10406045;28;20021;-83
2023/01/18 10:26:31;;;;;;;119.17;36.03;;;2.40;99.90;;;;;;10405129;28;20444;-82
2023/01/18 10:31:43;;;;;;;111.97;35.40;;;2.50;99.90;;;;;;10406743;28;20660;-83
2023/01/18 10:36:49;;;;;;;148.33;49.53;;;2.40;99.90;;;;;;10387129;28;20504;-81
2023/01/18 10:41:50;;;;;;;133.95;43.92;;;2.40;99.90;;;;;;10405266;28;20123;-83
2023/01/18 10:46:59;;;;;;;113.63;41.13;;;2.30;99.90;;;;;;10386815;28;20132;-84
2023/01/18 10:52:28;;;;;;;115.73;38.10;;;2.30;99.90;;;;;;10405298;28;20123;-82
2023/01/18 10:57:50;;;;;;;148.37;45.17;;;2.20;99.90;;;;;;10404106;28;20045;-83
2023/01/18 11:02:53;;;;;;;158.30;51.63;;;2.10;99.90;;;;;;10404655;28;20071;-83
2023/01/18 11:08:20;;;;;;;155.20;51.37;;;2.10;99.90;;;;;;10403685;28;20052;-84
2023/01/18 11:13:32;;;;;;;193.53;57.47;;;2.10;99.90;;;;;;10403816;28;20497;-83
2023/01/18 11:18:33;;;;;;;186.73;58.77;;;2.20;99.90;;;;;;10385570;28;20030;-83
2023/01/18 11:23:35;;;;;;;211.00;64.03;;;2.10;99.90;;;;;;10403964;28;20277;-83
2023/01/18 11:28:38;;;;;;;191.63;62.33;;;2.10;99.90;;;;;;10385968;28;20481;-84
2023/01/18 11:33:55;;;;;;;198.90;62.23;;;2.20;99.90;;;;;;10391168;28;20342;-83
2023/01/18 11:39:15;;;;;;;;;;;2.20;99.90;;;;;;10403059;28;20675;-82
2023/01/18 11:44:33;;;;;;;142.03;45.50;;;2.30;99.90;;;;;;10401802;28;19917;-82
2023/01/18 11:49:45;;;;;;;141.53;48.53;;;2.20;99.90;;;;;;10402220;28;20103;-81
2023/01/18 11:54:54;;;;;;;112.30;39.37;;;2.20;99.90;;;;;;10401470;28;20048;-82
2023/01/18 11:59:55;;;;;;;125.87;39.07;;;2.20;99.90;;;;;;10401761;28;20111;-81
2023/01/18 12:05:27;;;;;;;111.17;37.13;;;2.20;99.90;;;;;;10400926;28;20380;-82
2023/01/18 12:10:39;;;;;;;114.23;41.77;;;2.20;99.90;;;;;;10400489;28;20100;-83
2023/01/18 12:16:07;;;;;;;100.80;37.00;;;2.30;99.90;;;;;;10401470;28;20033;-83
2023/01/18 12:21:13;;;;;;;128.60;41.53;;;2.30;99.90;;;;;;10400795;28;20558;-83
2023/01/18 12:26:32;;;;;;;113.28;40.40;;;2.30;99.90;;;;;;10400787;28;20049;-81
2023/01/18 12:32:02;;;;;;;129.77;43.33;;;2.40;99.90;;;;;;10400724;28;20036;-82
2023/01/18 12:37:44;;;;;;;110.50;40.30;;;2.40;99.90;;;;;;10382894;28;20776;-83
2023/01/18 12:42:58;;;;;;;79.17;32.53;;;2.40;99.90;;;;;;10374005;28;20053;-82
2023/01/18 12:48:02;;;;;;;87.73;32.67;;;2.40;99.90;;;;;;10420458;28;20369;-80
2023/01/18 12:53:09;;;;;;;107.33;35.63;;;2.40;99.90;;;;;;10411743;28;20036;-81
2023/01/18 12:58:16;;;;;;;118.13;38.17;;;2.40;99.90;;;;;;10405530;28;20029;-81
2023/01/18 13:03:24;;;;;;;123.00;40.83;;;2.40;99.90;;;;;;10408087;28;20075;-84
2023/01/18 13:08:48;;;;;;;130.37;42.53;;;2.40;99.90;;;;;;10391769;28;20170;-82
2023/01/18 13:13:54;;;;;;;130.83;41.90;;;2.30;99.90;;;;;;10421732;28;20429;-83
2023/01/18 13:18:59;;;;;;;141.50;41.95;;;2.30;99.90;;;;;;10399381;28;20599;-82
2023/01/18 13:24:21;;;;;;;140.07;46.77;;;2.30;99.90;;;;;;10406386;28;20045;-82
2023/01/18 13:29:28;;;;;;;125.90;40.97;;;2.30;99.90;;;;;;10403769;28;20396;-82
2023/01/18 13:34:35;;;;;;;177.67;57.77;;;2.20;99.90;;;;;;10407179;28;20116;-81
2023/01/18 13:39:45;;;;;;;123.80;43.13;;;2.30;99.90;;;;;;10422563;28;20056;-82
2023/01/18 13:44:48;;;;;;;132.77;43.50;;;2.20;99.90;;;;;;10407126;28;20463;-82
2023/01/18 13:49:49;;;;;;;144.60;49.17;;;2.30;99.90;;;;;;10406252;28;20057;-81
2023/01/18 13:54:53;;;;;;;108.77;40.43;;;2.30;99.90;;;;;;10415575;28;20194;-83
2023/01/18 13:59:53;;;;;;;149.10;55.10;;;2.40;99.90;;;;;;10410466;28;20484;-83
2023/01/18 14:04:58;;;;;;;141.00;49.17;;;2.40;99.90;;;;;;10415403;28;20099;-83
2023/01/18 14:10:02;;;;;;;150.10;52.43;;;2.40;99.90;;;;;;10392494;28;20219;-82
2023/01/18 14:15:03;;;;;;;168.23;55.30;;;2.50;99.90;;;;;;10364333;28;20038;-83
2023/01/18 14:20:35;;;;;;;153.20;55.77;;;2.60;99.90;;;;;;10363844;28;20564;-80
2023/01/18 14:25:49;;;;;;;148.00;53.40;;;2.60;99.90;;;;;;10365662;28;20049;-82
2023/01/18 14:30:55;;;;;;;148.37;57.20;;;2.60;99.90;;;;;;10362536;28;20042;-81
2023/01/18 14:35:57;;;;;;;162.13;60.63;;;2.60;99.90;;;;;;10362846;28;20428;-82
2023/01/18 14:41:04;;;;;;;152.23;55.87;;;2.60;99.90;;;;;;10362421;28;20702;-83
2023/01/18 14:46:22;;;;;;;161.30;63.90;;;2.70;99.90;;;;;;10357258;28;20044;-84
2023/01/18 14:51:26;;;;;;;179.70;68.40;;;2.70;99.90;;;;;;10362783;28;20083;-81
2023/01/18 14:56:30;;;;;;;150.57;55.83;;;2.70;99.90;;;;;;10361999;28;20065;-80
2023/01/18 15:01:38;;;;;;;155.13;58.47;;;2.80;99.90;;;;;;10346560;28;20034;-83
2023/01/18 15:06:38;;;;;;;144.63;53.10;;;2.80;99.90;;;;;;10360479;28;20042;-81
2023/01/18 15:11:41;;;;;;;152.77;54.83;;;2.90;99.90;;;;;;10359842;28;20049;-82
2023/01/18 15:16:43;;;;;;;128.00;48.87;;;3.00;99.90;;;;;;10354116;28;20038;-83
2023/01/18 15:21:44;;;;;;;125.20;45.73;;;3.00;99.90;;;;;;10336492;28;20139;-81
2023/01/18 15:26:59;;;;;;;122.37;46.10;;;3.10;99.90;;;;;;10360629;28;20121;-83
2023/01/18 15:32:16;;;;;;;147.67;54.60;;;3.10;99.90;;;;;;10343195;28;20472;-82
2023/01/18 15:37:32;;;;;;;136.13;45.20;;;3.20;99.90;;;;;;10360703;28;20101;-82
2023/01/18 15:42:51;;;;;;;124.85;44.53;;;3.20;99.90;;;;;;10373455;28;20053;-83
2023/01/18 15:48:04;;;;;;;117.47;43.97;;;3.20;99.90;;;;;;10359342;28;20279;-84
2023/01/18 15:53:10;;;;;;;112.13;41.90;;;3.30;99.90;;;;;;10362470;28;20033;-80
2023/01/18 15:58:33;;;;;;;111.90;40.30;;;3.30;99.90;;;;;;10361784;28;20036;-83
2023/01/18 16:03:56;;;;;;;114.03;40.43;;;3.30;99.90;;;;;;10359415;28;20033;-83
2023/01/18 16:09:16;;;;;;;126.47;44.40;;;3.40;99.90;;;;;;10334476;28;20100;-82
2023/01/18 16:14:44;;;;;;;105.17;40.83;;;3.40;99.90;;;;;;10400064;28;20072;-82
2023/01/18 16:19:51;;;;;;;110.60;37.23;;;3.40;99.90;;;;;;10400958;28;20041;-84
2023/01/18 16:25:00;;;;;;;98.17;37.33;;;3.40;99.90;;;;;;10401005;28;20044;-84
2023/01/18 16:30:13;;;;;;;119.07;40.20;;;3.40;99.90;;;;;;10405259;28;20036;-84
2023/01/18 16:35:22;;;;;;;104.97;40.80;;;3.40;99.90;;;;;;10409319;28;20038;-82
2023/01/18 16:40:23;;;;;;;102.73;38.80;;;3.40;99.90;;;;;;10395572;28;20119;-81
2023/01/18 16:45:24;;;;;;;114.23;41.83;;;3.30;99.90;;;;;;10407182;28;20049;-82
2023/01/18 16:50:25;;;;;;;113.53;40.37;;;3.40;99.90;;;;;;10416697;28;20056;-85
2023/01/18 16:55:26;;;;;;;103.00;40.80;;;3.30;99.90;;;;;;10402107;28;20037;-81
2023/01/18 17:00:53;;;;;;;160.63;62.67;;;3.30;99.90;;;;;;10400932;28;20033;-82
2023/01/18 17:05:55;;;;;;;123.77;49.40;;;3.30;99.90;;;;;;10395616;28;20136;-83
2023/01/18 17:10:55;;;;;;;143.53;54.30;;;3.20;99.90;;;;;;10399909;28;20128;-83
2023/01/18 17:15:56;;;;;;;212.33;81.53;;;3.20;99.90;;;;;;10405162;28;20784;-86
2023/01/18 17:20:56;;;;;;;168.90;66.97;;;3.10;99.90;;;;;;10400268;28;20111;-83
2023/01/18 17:25:58;;;;;;;149.97;55.37;;;3.20;99.90;;;;;;10400325;28;20049;-84
2023/01/18 17:30:59;;;;;;;115.17;42.33;;;3.20;99.90;;;;;;10401784;28;20128;-84
2023/01/18 17:35:59;;;;;;;119.40;44.83;;;3.20;99.90;;;;;;10395577;28;20571;-83
2023/01/18 17:41:00;;;;;;;117.37;45.43;;;3.20;99.90;;;;;;10408412;28;20040;-83
2023/01/18 17:46:05;;;;;;;104.67;36.50;;;3.20;99.90;;;;;;10421814;28;20472;-83
2023/01/18 17:51:07;;;;;;;98.20;34.97;;;3.20;99.90;;;;;;10407063;28;20033;-82
2023/01/18 17:56:10;;;;;;;86.93;34.30;;;3.20;99.90;;;;;;10406445;28;20051;-85
2023/01/18 18:01:13;;;;;;;95.63;36.07;;;3.20;99.90;;;;;;10387554;28;20037;-83
2023/01/18 18:06:15;;;;;;;109.37;39.37;;;3.20;99.90;;;;;;10412227;28;20693;-85
2023/01/18 18:11:15;;;;;;;101.60;37.83;;;3.20;99.90;;;;;;10407466;28;20049;-82
2023/01/18 18:16:16;;;;;;;95.23;35.10;;;3.10;99.90;;;;;;10412082;28;20036;-83
2023/01/18 18:21:17;;;;;;;100.07;38.43;;;3.10;99.90;;;;;;10391018;28;20033;-84
2023/01/18 18:26:17;;;;;;;96.17;37.03;;;3.00;99.90;;;;;;10397232;28;20068;-86
2023/01/18 18:31:19;;;;;;;111.27;43.27;;;2.80;99.90;;;;;;10413124;28;20032;-83
2023/01/18 18:36:20;;;;;;;125.87;51.17;;;2.80;99.90;;;;;;10389509;28;20175;-83
2023/01/18 18:41:21;;;;;;;121.27;51.60;;;2.70;99.90;;;;;;10403185;28;20580;-84
2023/01/18 18:46:22;;;;;;;125.50;52.47;;;2.60;99.90;;;;;;10420570;28;20029;-84
2023/01/18 18:51:24;;;;;;;135.20;55.27;;;2.50;99.90;;;;;;10406345;28;20032;-83
2023/01/18 18:56:24;;;;;;;151.87;61.97;;;2.40;99.90;;;;;;10407668;28;20026;-86
2023/01/18 19:01:30;;;;;;;140.30;57.43;;;2.30;99.90;;;;;;10396413;28;20028;-85
2023/01/18 19:06:30;;;;;;;139.80;56.47;;;2.40;99.90;;;;;;10402714;28;20151;-84
2023/01/18 19:11:31;;;;;;;130.40;52.77;;;2.30;99.90;;;;;;10410285;28;20930;-83
2023/01/18 19:16:32;;;;;;;175.73;72.80;;;2.20;99.90;;;;;;10408460;28;20029;-84
2023/01/18 19:21:32;;;;;;;189.27;77.40;;;2.20;99.90;;;;;;10403897;28;20484;-85
2023/01/18 19:26:33;;;;;;;142.47;59.93;;;2.20;99.90;;;;;;10403609;28;20060;-83
2023/01/18 19:31:34;;;;;;;143.23;57.53;;;2.10;99.90;;;;;;10394552;28;20036;-83
2023/01/18 19:36:35;;;;;;;128.50;55.23;;;2.10;99.90;;;;;;10400698;28;20798;-83
2023/01/18 19:41:36;;;;;;;122.83;52.83;;;2.10;99.90;;;;;;10410050;28;20033;-82
2023/01/18 19:46:36;;;;;;;171.57;78.77;;;2.00;99.90;;;;;;10420824;28;20503;-86
2023/01/18 19:51:40;;;;;;;248.33;112.47;;;2.00;99.90;;;;;;10410262;28;20033;-84
2023/01/18 19:56:40;;;;;;;129.57;56.73;;;2.00;99.90;;;;;;10401447;28;20124;-84
2023/01/18 20:01:41;;;;;;;119.83;51.03;;;1.90;99.90;;;;;;10404808;28;20037;-86
2023/01/18 20:06:44;;;;;;;130.20;54.23;;;1.90;99.90;;;;;;10390214;28;20496;-85
2023/01/18 20:11:46;;;;;;;138.70;56.30;;;1.90;99.90;;;;;;10382876;28;20511;-85
2023/01/18 20:16:46;;;;;;;126.40;56.73;;;1.80;99.90;;;;;;10403912;28;20034;-85
2023/01/18 20:21:47;;;;;;;137.10;56.73;;;1.80;99.90;;;;;;10384382;28;20756;-85
2023/01/18 20:26:47;;;;;;;130.90;58.17;;;1.80;99.90;;;;;;10401946;28;20037;-85
2023/01/18 20:31:48;;;;;;;138.03;58.87;;;1.70;99.90;;;;;;10401303;28;20038;-84
2023/01/18 20:36:49;;;;;;;141.60;63.23;;;1.70;99.90;;;;;;10401431;28;20046;-85
2023/01/18 20:41:49;;;;;;;164.27;72.53;;;1.60;99.90;;;;;;10384691;28;20120;-84
2023/01/18 20:46:53;;;;;;;140.90;63.37;;;1.60;99.90;;;;;;10407439;28;20103;-85
2023/01/18 20:51:54;;;;;;;138.27;56.57;;;1.60;99.90;;;;;;10402000;28;20037;-86
2023/01/18 20:56:54;;;;;;;140.80;57.30;;;1.60;99.90;;;;;;10383264;28;20408;-85
2023/01/18 21:01:55;;;;;;;135.10;58.00;;;1.60;99.90;;;;;;10401303;28;20049;-86
2023/01/18 21:06:56;;;;;;;144.40;61.27;;;1.60;99.90;;;;;;10407392;28;20503;-84
2023/01/18 21:11:57;;;;;;;184.10;86.93;;;1.60;99.90;;;;;;10416371;28;20576;-84
2023/01/18 21:16:57;;;;;;;212.83;89.33;;;1.60;99.90;;;;;;10422130;28;20033;-84
2023/01/18 21:21:58;;;;;;;215.73;91.87;;;1.50;99.90;;;;;;10425164;28;20075;-84
2023/01/18 21:26:58;;;;;;;182.40;72.03;;;1.30;99.90;;;;;;10408947;28;20048;-84
2023/01/18 21:32:00;;;;;;;141.33;63.90;;;1.20;99.90;;;;;;10423815;28;20021;-84
2023/01/18 21:37:00;;;;;;;162.50;71.33;;;1.10;99.90;;;;;;10408281;28;20037;-84
2023/01/18 21:47:20;;;;;;;166.30;75.40;;;1.00;99.90;;;;;;10406953;28;20455;-83
2023/01/18 21:57:40;;;;;;;174.10;76.53;;;1.10;99.90;;;;;;10406872;28;20049;-85
2023/01/18 22:02:40;;;;;;;180.67;77.40;;;1.00;99.90;;;;;;10410765;28;20037;-85
2023/01/18 22:07:41;;;;;;;172.00;73.17;;;0.90;99.90;;;;;;10426136;28;20504;-84
2023/01/18 22:12:42;;;;;;;183.20;77.57;;;1.00;99.90;;;;;;10412961;28;20045;-84
2023/01/18 22:17:42;;;;;;;195.37;77.87;;;1.00;99.90;;;;;;10418186;28;20087;-85
2023/01/18 22:22:43;;;;;;;187.43;80.23;;;0.90;99.90;;;;;;10387210;28;20132;-84
2023/01/18 22:27:43;;;;;;;213.27;92.67;;;0.90;99.90;;;;;;10405658;28;20051;-85
2023/01/18 22:32:44;;;;;;;225.70;90.33;;;0.80;99.90;;;;;;10415256;28;20048;-86
2023/01/18 22:37:44;;;;;;;202.80;81.37;;;0.70;99.90;;;;;;10408087;28;20041;-85
2023/01/18 22:42:45;;;;;;;170.87;69.97;;;0.70;99.90;;;;;;10415643;28;20041;-84
2023/01/18 22:47:46;;;;;;;175.93;71.87;;;0.70;99.90;;;;;;10397118;28;20126;-85
2023/01/18 22:52:46;;;;;;;187.10;77.50;;;0.60;99.90;;;;;;10406955;28;20032;-85
2023/01/18 22:57:47;;;;;;;201.03;79.50;;;0.60;99.90;;;;;;10404609;28;20053;-84
2023/01/18 23:02:47;;;;;;;211.53;84.63;;;0.60;99.90;;;;;;10389140;28;20441;-83
2023/01/18 23:07:48;;;;;;;207.23;86.40;;;0.60;99.90;;;;;;10379606;28;20046;-84
2023/01/18 23:12:51;;;;;;;244.10;96.70;;;0.60;99.90;;;;;;10404030;28;20053;-84
2023/01/18 23:17:51;;;;;;;244.40;99.13;;;0.60;99.90;;;;;;10386823;28;20494;-84
2023/01/18 23:22:52;;;;;;;250.43;100.33;;;0.70;99.90;;;;;;10404142;28;20029;-84
2023/01/18 23:27:52;;;;;;;218.77;93.13;;;0.60;99.90;;;;;;10402372;28;20383;-85
2023/01/18 23:32:53;;;;;;;211.70;86.07;;;0.60;99.90;;;;;;10413877;28;20040;-83
2023/01/18 23:37:53;;;;;;;205.80;88.57;;;0.60;99.90;;;;;;10384715;28;21110;-83
2023/01/18 23:58:57;;;;;;;276.60;110.80;;;0.50;99.90;;;;;;10403242;28;20477;-84
